sensor_id;sensor_type;location;lat;lon;timestamp;pressure;altitude;pressure_sealevel;temperature;humidity
61761;BME280;47664;51.660;-0.100;2022-11-25T00:00:20;99732.69;;;8.90;59.09
61761;BME280;47664;51.660;-0.100;2022-11-25T00:02:53;99735.30;;;8.97;59.08
61761;BME280;47664;51.660;-0.100;2022-11-25T00:05:26;99734.66;;;9.19;58.44
61761;BME280;47664;51.660;-0.100;2022-11-25T00:07:58;99734.02;;;8.74;59.13
61761;BME280;47664;51.660;-0.100;2022-11-25T00:10:30;99730.28;;;8.88;58.79
61761;BME280;47664;51.660;-0.100;2022-11-25T00:13:02;99729.66;;;8.60;59.17
61761;BME280;47664;51.660;-0.100;2022-11-25T00:15:34;99726.49;;;9.13;58.89
61761;BME280;47664;51.660;-0.100;2022-11-25T00:18:06;99729.34;;;8.89;59.82
61761;BME280;47664;51.660;-0.100;2022-11-25T00:20:38;99731.50;;;8.45;60.21
61761;BME280;47664;51.660;-0.100;2022-11-25T00:23:10;99731.08;;;8.24;60.70
61761;BME280;47664;51.660;-0.100;2022-11-25T00:25:42;99730.70;;;7.94;61.25
61761;BME280;47664;51.660;-0.100;2022-11-25T00:28:14;99731.60;;;8.56;60.29
61761;BME280;47664;51.660;-0.100;2022-11-25T00:30:46;99727.15;;;9.17;58.73
61761;BME280;47664;51.660;-0.100;2022-11-25T00:33:18;99727.77;;;9.36;58.21
61761;BME280;47664;51.660;-0.100;2022-11-25T00:35:50;99729.41;;;8.70;59.22
61761;BME280;47664;51.660;-0.100;2022-11-25T00:38:22;99732.81;;;8.62;59.93
61761;BME280;47664;51.660;-0.100;2022-11-25T00:40:56;99730.29;;;8.64;58.98
61761;BME280;47664;51.660;-0.100;2022-11-25T00:43:28;99731.46;;;8.51;59.53
61761;BME280;47664;51.660;-0.100;2022-11-25T00:46:00;99738.21;;;8.29;61.48
61761;BME280;47664;51.660;-0.100;2022-11-25T00:48:32;99740.16;;;8.12;61.22
61761;BME280;47664;51.660;-0.100;2022-11-25T00:51:05;99739.13;;;8.58;60.17
61761;BME280;47664;51.660;-0.100;2022-11-25T00:53:37;99739.18;;;8.69;60.28
61761;BME280;47664;51.660;-0.100;2022-11-25T00:56:10;99739.71;;;8.43;60.48
61761;BME280;47664;51.660;-0.100;2022-11-25T00:58:42;99745.30;;;8.64;60.26
61761;BME280;47664;51.660;-0.100;2022-11-25T01:01:15;99748.14;;;8.36;60.74
61761;BME280;47664;51.660;-0.100;2022-11-25T01:03:47;99747.96;;;8.90;59.31
61761;BME280;47664;51.660;-0.100;2022-11-25T01:06:20;99752.05;;;8.59;59.56
61761;BME280;47664;51.660;-0.100;2022-11-25T01:08:53;99752.27;;;8.45;60.18
61761;BME280;47664;51.660;-0.100;2022-11-25T01:11:26;99757.85;;;8.06;60.32
61761;BME280;47664;51.660;-0.100;2022-11-25T01:13:59;99761.59;;;8.86;60.23
61761;BME280;47664;51.660;-0.100;2022-11-25T01:16:31;99767.52;;;8.36;60.98
61761;BME280;47664;51.660;-0.100;2022-11-25T01:19:03;99763.87;;;7.82;61.75
61761;BME280;47664;51.660;-0.100;2022-11-25T01:21:36;99768.17;;;8.04;61.73
61761;BME280;47664;51.660;-0.100;2022-11-25T01:24:10;99772.11;;;8.06;61.30
61761;BME280;47664;51.660;-0.100;2022-11-25T01:26:44;99781.56;;;8.54;60.66
61761;BME280;47664;51.660;-0.100;2022-11-25T01:29:17;99789.79;;;8.34;60.53
61761;BME280;47664;51.660;-0.100;2022-11-25T01:31:50;99793.08;;;8.49;60.12
61761;BME280;47664;51.660;-0.100;2022-11-25T01:34:27;99800.00;;;8.49;59.66
61761;BME280;47664;51.660;-0.100;2022-11-25T01:36:59;99807.58;;;8.43;60.07
61761;BME280;47664;51.660;-0.100;2022-11-25T01:39:31;99803.22;;;8.15;60.57
61761;BME280;47664;51.660;-0.100;2022-11-25T01:42:03;99801.35;;;8.50;60.01
61761;BME280;47664;51.660;-0.100;2022-11-25T01:44:37;99803.64;;;8.38;59.76
61761;BME280;47664;51.660;-0.100;2022-11-25T01:47:11;99801.40;;;8.29;60.13
61761;BME280;47664;51.660;-0.100;2022-11-25T01:49:48;99811.12;;;8.30;60.56
61761;BME280;47664;51.660;-0.100;2022-11-25T01:52:26;99812.18;;;8.18;60.86
61761;BME280;47664;51.660;-0.100;2022-11-25T01:55:02;99804.08;;;8.32;61.04
61761;BME280;47664;51.660;-0.100;2022-11-25T01:57:37;99809.64;;;8.07;60.42
61761;BME280;47664;51.660;-0.100;2022-11-25T02:00:13;99814.89;;;8.16;60.54
61761;BME280;47664;51.660;-0.100;2022-11-25T02:02:46;99820.99;;;8.59;59.42
61761;BME280;47664;51.660;-0.100;2022-11-25T02:05:24;99819.50;;;8.42;59.59
61761;BME280;47664;51.660;-0.100;2022-11-25T02:08:00;99820.88;;;8.20;61.08
61761;BME280;47664;51.660;-0.100;2022-11-25T02:10:34;99824.20;;;8.17;60.93
61761;BME280;47664;51.660;-0.100;2022-11-25T02:13:07;99829.03;;;8.13;60.56
61761;BME280;47664;51.660;-0.100;2022-11-25T02:15:40;99833.41;;;8.14;61.37
61761;BME280;47664;51.660;-0.100;2022-11-25T02:18:12;99838.35;;;8.47;60.72
61761;BME280;47664;51.660;-0.100;2022-11-25T02:20:44;99838.66;;;8.08;60.44
61761;BME280;47664;51.660;-0.100;2022-11-25T02:23:17;99840.34;;;8.41;60.47
61761;BME280;47664;51.660;-0.100;2022-11-25T02:25:53;99843.83;;;7.92;60.92
61761;BME280;47664;51.660;-0.100;2022-11-25T02:28:28;99851.30;;;7.97;60.76
61761;BME280;47664;51.660;-0.100;2022-11-25T02:31:01;99854.53;;;8.28;60.46
61761;BME280;47664;51.660;-0.100;2022-11-25T02:33:33;99854.79;;;8.24;60.34
61761;BME280;47664;51.660;-0.100;2022-11-25T02:36:09;99862.58;;;8.11;60.69
61761;BME280;47664;51.660;-0.100;2022-11-25T02:38:42;99863.48;;;8.43;60.19
61761;BME280;47664;51.660;-0.100;2022-11-25T02:41:17;99866.75;;;7.99;61.47
61761;BME280;47664;51.660;-0.100;2022-11-25T02:43:51;99873.86;;;8.43;60.84
61761;BME280;47664;51.660;-0.100;2022-11-25T02:46:26;99880.74;;;8.26;60.74
61761;BME280;47664;51.660;-0.100;2022-11-25T02:49:00;99884.36;;;8.46;60.33
61761;BME280;47664;51.660;-0.100;2022-11-25T02:51:33;99883.53;;;8.53;60.98
61761;BME280;47664;51.660;-0.100;2022-11-25T02:54:06;99888.13;;;8.18;60.71
61761;BME280;47664;51.660;-0.100;2022-11-25T02:56:39;99893.61;;;7.86;61.45
61761;BME280;47664;51.660;-0.100;2022-11-25T02:59:12;99896.39;;;8.22;61.09
61761;BME280;47664;51.660;-0.100;2022-11-25T03:01:44;99897.09;;;8.09;61.05
61761;BME280;47664;51.660;-0.100;2022-11-25T03:04:16;99903.81;;;8.04;61.73
61761;BME280;47664;51.660;-0.100;2022-11-25T03:06:49;99910.57;;;7.82;62.88
61761;BME280;47664;51.660;-0.100;2022-11-25T03:09:21;99913.17;;;7.96;62.78
61761;BME280;47664;51.660;-0.100;2022-11-25T03:11:53;99920.49;;;7.79;62.76
61761;BME280;47664;51.660;-0.100;2022-11-25T03:14:25;99927.27;;;7.94;62.86
61761;BME280;47664;51.660;-0.100;2022-11-25T03:16:58;99933.41;;;7.78;63.51
61761;BME280;47664;51.660;-0.100;2022-11-25T03:19:29;99938.76;;;7.88;62.66
61761;BME280;47664;51.660;-0.100;2022-11-25T03:22:02;99942.34;;;8.10;62.06
61761;BME280;47664;51.660;-0.100;2022-11-25T03:24:34;99948.25;;;8.01;62.41
61761;BME280;47664;51.660;-0.100;2022-11-25T03:27:06;99948.86;;;7.73;62.48
61761;BME280;47664;51.660;-0.100;2022-11-25T03:29:38;99955.03;;;7.88;62.76
61761;BME280;47664;51.660;-0.100;2022-11-25T03:32:10;99959.97;;;8.14;62.47
61761;BME280;47664;51.660;-0.100;2022-11-25T03:34:43;99963.70;;;8.20;62.33
61761;BME280;47664;51.660;-0.100;2022-11-25T03:37:15;99966.37;;;8.21;61.91
61761;BME280;47664;51.660;-0.100;2022-11-25T03:39:47;99963.05;;;8.16;61.87
61761;BME280;47664;51.660;-0.100;2022-11-25T03:42:19;99966.10;;;8.01;61.73
61761;BME280;47664;51.660;-0.100;2022-11-25T03:44:52;99968.49;;;7.74;62.87
61761;BME280;47664;51.660;-0.100;2022-11-25T03:47:24;99970.75;;;7.55;63.57
61761;BME280;47664;51.660;-0.100;2022-11-25T03:49:56;99968.69;;;7.92;63.14
61761;BME280;47664;51.660;-0.100;2022-11-25T03:52:28;99959.97;;;7.84;61.95
61761;BME280;47664;51.660;-0.100;2022-11-25T03:55:00;99967.46;;;7.89;61.97
61761;BME280;47664;51.660;-0.100;2022-11-25T03:57:32;99972.40;;;7.71;62.95
61761;BME280;47664;51.660;-0.100;2022-11-25T04:00:05;99977.57;;;7.72;62.46
61761;BME280;47664;51.660;-0.100;2022-11-25T04:02:37;99987.70;;;7.55;63.04
61761;BME280;47664;51.660;-0.100;2022-11-25T04:05:10;100003.72;;;7.65;63.32
61761;BME280;47664;51.660;-0.100;2022-11-25T04:07:42;100013.04;;;8.04;62.72
61761;BME280;47664;51.660;-0.100;2022-11-25T04:10:14;100018.77;;;8.33;62.03
61761;BME280;47664;51.660;-0.100;2022-11-25T04:12:46;100021.61;;;8.02;61.67
61761;BME280;47664;51.660;-0.100;2022-11-25T04:15:18;100026.66;;;8.33;61.40
61761;BME280;47664;51.660;-0.100;2022-11-25T04:17:51;100028.89;;;8.46;60.31
61761;BME280;47664;51.660;-0.100;2022-11-25T04:20:23;100028.87;;;8.83;59.61
61761;BME280;47664;51.660;-0.100;2022-11-25T04:22:55;100031.74;;;8.87;59.27
61761;BME280;47664;51.660;-0.100;2022-11-25T04:25:27;100041.33;;;8.70;59.23
61761;BME280;47664;51.660;-0.100;2022-11-25T04:27:59;100045.38;;;8.69;59.16
61761;BME280;47664;51.660;-0.100;2022-11-25T04:30:31;100051.34;;;9.00;59.22
61761;BME280;47664;51.660;-0.100;2022-11-25T04:33:03;100058.55;;;8.65;59.59
61761;BME280;47664;51.660;-0.100;2022-11-25T04:35:35;100062.42;;;8.73;59.54
61761;BME280;47664;51.660;-0.100;2022-11-25T04:38:07;100065.84;;;8.38;59.87
61761;BME280;47664;51.660;-0.100;2022-11-25T04:40:39;100072.67;;;8.20;59.78
61761;BME280;47664;51.660;-0.100;2022-11-25T04:43:11;100083.38;;;8.54;60.35
61761;BME280;47664;51.660;-0.100;2022-11-25T04:45:45;100082.42;;;8.81;59.30
61761;BME280;47664;51.660;-0.100;2022-11-25T04:48:17;100085.17;;;8.71;59.53
61761;BME280;47664;51.660;-0.100;2022-11-25T04:50:50;100097.47;;;8.78;59.80
61761;BME280;47664;51.660;-0.100;2022-11-25T04:53:21;100098.69;;;8.29;60.48
61761;BME280;47664;51.660;-0.100;2022-11-25T04:55:53;100099.62;;;8.34;60.84
61761;BME280;47664;51.660;-0.100;2022-11-25T04:58:25;100104.44;;;8.45;60.77
61761;BME280;47664;51.660;-0.100;2022-11-25T05:00:58;100112.93;;;8.61;60.20
61761;BME280;47664;51.660;-0.100;2022-11-25T05:03:30;100119.64;;;8.30;60.69
61761;BME280;47664;51.660;-0.100;2022-11-25T05:06:04;100127.32;;;8.49;60.62
61761;BME280;47664;51.660;-0.100;2022-11-25T05:08:36;100132.92;;;8.27;61.22
61761;BME280;47664;51.660;-0.100;2022-11-25T05:11:08;100142.63;;;8.09;61.51
61761;BME280;47664;51.660;-0.100;2022-11-25T05:13:40;100146.86;;;7.80;62.94
61761;BME280;47664;51.660;-0.100;2022-11-25T05:16:12;100147.34;;;7.79;63.39
61761;BME280;47664;51.660;-0.100;2022-11-25T05:18:44;100155.25;;;8.08;62.93
61761;BME280;47664;51.660;-0.100;2022-11-25T05:21:16;100156.36;;;7.88;62.61
61761;BME280;47664;51.660;-0.100;2022-11-25T05:23:49;100158.52;;;7.60;63.24
61761;BME280;47664;51.660;-0.100;2022-11-25T05:26:21;100160.37;;;7.99;62.49
61761;BME280;47664;51.660;-0.100;2022-11-25T05:28:53;100168.99;;;8.02;62.58
61761;BME280;47664;51.660;-0.100;2022-11-25T05:31:25;100172.38;;;7.99;61.79
61761;BME280;47664;51.660;-0.100;2022-11-25T05:33:58;100176.95;;;8.05;61.97
61761;BME280;47664;51.660;-0.100;2022-11-25T05:36:30;100176.69;;;8.01;62.43
61761;BME280;47664;51.660;-0.100;2022-11-25T05:39:02;100181.96;;;7.52;63.05
61761;BME280;47664;51.660;-0.100;2022-11-25T05:41:35;100183.03;;;7.66;62.71
61761;BME280;47664;51.660;-0.100;2022-11-25T05:44:07;100188.89;;;7.95;61.91
61761;BME280;47664;51.660;-0.100;2022-11-25T05:46:40;100192.02;;;8.30;61.81
61761;BME280;47664;51.660;-0.100;2022-11-25T05:49:12;100199.91;;;7.89;62.23
61761;BME280;47664;51.660;-0.100;2022-11-25T05:51:49;100209.13;;;8.13;61.37
61761;BME280;47664;51.660;-0.100;2022-11-25T05:54:21;100216.42;;;7.75;62.34
61761;BME280;47664;51.660;-0.100;2022-11-25T05:56:53;100216.44;;;7.94;61.94
61761;BME280;47664;51.660;-0.100;2022-11-25T05:59:26;100226.33;;;7.31;62.12
61761;BME280;47664;51.660;-0.100;2022-11-25T06:01:58;100229.44;;;8.10;61.64
61761;BME280;47664;51.660;-0.100;2022-11-25T06:04:31;100233.26;;;8.06;62.15
61761;BME280;47664;51.660;-0.100;2022-11-25T06:07:04;100238.14;;;7.92;62.38
61761;BME280;47664;51.660;-0.100;2022-11-25T06:09:36;100250.75;;;8.12;62.84
61761;BME280;47664;51.660;-0.100;2022-11-25T06:12:08;100256.05;;;7.63;62.80
61761;BME280;47664;51.660;-0.100;2022-11-25T06:14:40;100266.46;;;7.77;62.45
61761;BME280;47664;51.660;-0.100;2022-11-25T06:17:12;100278.34;;;7.72;62.86
61761;BME280;47664;51.660;-0.100;2022-11-25T06:19:45;100289.11;;;7.61;62.83
61761;BME280;47664;51.660;-0.100;2022-11-25T06:22:17;100296.75;;;7.40;63.14
61761;BME280;47664;51.660;-0.100;2022-11-25T06:24:49;100301.57;;;7.56;63.67
61761;BME280;47664;51.660;-0.100;2022-11-25T06:27:21;100304.55;;;7.45;63.50
61761;BME280;47664;51.660;-0.100;2022-11-25T06:29:53;100311.14;;;7.57;63.19
61761;BME280;47664;51.660;-0.100;2022-11-25T06:32:25;100315.29;;;7.58;63.56
61761;BME280;47664;51.660;-0.100;2022-11-25T06:34:58;100318.84;;;7.38;64.23
61761;BME280;47664;51.660;-0.100;2022-11-25T06:37:30;100322.77;;;7.27;64.71
61761;BME280;47664;51.660;-0.100;2022-11-25T06:40:03;100326.84;;;7.23;64.77
61761;BME280;47664;51.660;-0.100;2022-11-25T06:42:36;100336.65;;;7.14;64.95
61761;BME280;47664;51.660;-0.100;2022-11-25T06:45:09;100342.35;;;7.15;64.81
61761;BME280;47664;51.660;-0.100;2022-11-25T06:47:42;100344.39;;;7.17;64.09
61761;BME280;47664;51.660;-0.100;2022-11-25T06:50:14;100354.84;;;7.12;64.63
61761;BME280;47664;51.660;-0.100;2022-11-25T06:52:46;100361.19;;;7.23;64.67
61761;BME280;47664;51.660;-0.100;2022-11-25T06:55:18;100364.83;;;7.42;64.31
61761;BME280;47664;51.660;-0.100;2022-11-25T06:57:50;100367.15;;;7.56;63.78
61761;BME280;47664;51.660;-0.100;2022-11-25T07:00:22;100372.07;;;7.51;64.74
61761;BME280;47664;51.660;-0.100;2022-11-25T07:02:55;100381.10;;;7.42;64.05
61761;BME280;47664;51.660;-0.100;2022-11-25T07:05:27;100385.09;;;7.31;64.23
61761;BME280;47664;51.660;-0.100;2022-11-25T07:07:59;100392.59;;;7.14;64.00
61761;BME280;47664;51.660;-0.100;2022-11-25T07:10:32;100407.46;;;7.55;63.61
61761;BME280;47664;51.660;-0.100;2022-11-25T07:13:04;100417.29;;;7.33;63.85
61761;BME280;47664;51.660;-0.100;2022-11-25T07:15:38;100425.63;;;7.40;64.03
61761;BME280;47664;51.660;-0.100;2022-11-25T07:18:11;100431.62;;;7.09;64.56
61761;BME280;47664;51.660;-0.100;2022-11-25T07:20:43;100432.70;;;7.26;64.36
61761;BME280;47664;51.660;-0.100;2022-11-25T07:23:15;100441.92;;;7.21;64.39
61761;BME280;47664;51.660;-0.100;2022-11-25T07:25:47;100452.50;;;7.22;64.35
61761;BME280;47664;51.660;-0.100;2022-11-25T07:28:19;100456.15;;;7.45;63.59
61761;BME280;47664;51.660;-0.100;2022-11-25T07:30:52;100461.26;;;7.24;63.78
61761;BME280;47664;51.660;-0.100;2022-11-25T07:33:23;100462.13;;;7.43;63.19
61761;BME280;47664;51.660;-0.100;2022-11-25T07:36:00;100469.42;;;7.47;63.09
61761;BME280;47664;51.660;-0.100;2022-11-25T07:38:33;100478.49;;;7.46;63.58
61761;BME280;47664;51.660;-0.100;2022-11-25T07:41:04;100476.85;;;7.64;63.39
61761;BME280;47664;51.660;-0.100;2022-11-25T07:43:36;100484.64;;;7.51;63.31
61761;BME280;47664;51.660;-0.100;2022-11-25T07:46:09;100488.61;;;7.09;63.71
61761;BME280;47664;51.660;-0.100;2022-11-25T07:48:42;100501.28;;;6.90;65.62
61761;BME280;47664;51.660;-0.100;2022-11-25T07:51:14;100509.66;;;6.79;65.66
61761;BME280;47664;51.660;-0.100;2022-11-25T07:53:47;100519.45;;;6.28;66.40
61761;BME280;47664;51.660;-0.100;2022-11-25T07:56:20;100525.13;;;6.79;65.86
61761;BME280;47664;51.660;-0.100;2022-11-25T07:58:53;100533.41;;;6.57;66.40
61761;BME280;47664;51.660;-0.100;2022-11-25T08:01:26;100540.39;;;6.47;66.74
61761;BME280;47664;51.660;-0.100;2022-11-25T08:03:58;100549.11;;;6.80;65.98
61761;BME280;47664;51.660;-0.100;2022-11-25T08:06:31;100554.82;;;6.82;66.12
61761;BME280;47664;51.660;-0.100;2022-11-25T08:09:03;100563.64;;;6.67;65.83
61761;BME280;47664;51.660;-0.100;2022-11-25T08:11:36;100574.27;;;6.80;65.25
61761;BME280;47664;51.660;-0.100;2022-11-25T08:14:08;100580.57;;;6.92;65.52
61761;BME280;47664;51.660;-0.100;2022-11-25T08:16:41;100583.17;;;6.84;65.09
61761;BME280;47664;51.660;-0.100;2022-11-25T08:19:12;100589.21;;;6.78;65.57
61761;BME280;47664;51.660;-0.100;2022-11-25T08:21:45;100595.01;;;7.28;65.94
61761;BME280;47664;51.660;-0.100;2022-11-25T08:24:19;100599.99;;;6.91;65.11
61761;BME280;47664;51.660;-0.100;2022-11-25T08:26:52;100599.90;;;7.17;64.86
61761;BME280;47664;51.660;-0.100;2022-11-25T08:29:24;100607.64;;;7.01;64.88
61761;BME280;47664;51.660;-0.100;2022-11-25T08:31:56;100613.28;;;7.40;65.06
61761;BME280;47664;51.660;-0.100;2022-11-25T08:34:28;100623.72;;;6.78;65.60
61761;BME280;47664;51.660;-0.100;2022-11-25T08:37:00;100628.61;;;7.24;65.20
61761;BME280;47664;51.660;-0.100;2022-11-25T08:39:33;100634.94;;;7.14;64.65
61761;BME280;47664;51.660;-0.100;2022-11-25T08:42:06;100642.54;;;7.00;64.82
61761;BME280;47664;51.660;-0.100;2022-11-25T08:44:38;100650.17;;;7.09;64.89
61761;BME280;47664;51.660;-0.100;2022-11-25T08:47:11;100655.10;;;7.10;64.84
61761;BME280;47664;51.660;-0.100;2022-11-25T08:49:43;100657.17;;;6.96;64.85
61761;BME280;47664;51.660;-0.100;2022-11-25T08:52:15;100661.48;;;6.81;65.63
61761;BME280;47664;51.660;-0.100;2022-11-25T08:54:47;100666.43;;;7.01;66.16
61761;BME280;47664;51.660;-0.100;2022-11-25T08:57:20;100672.34;;;6.68;66.08
61761;BME280;47664;51.660;-0.100;2022-11-25T08:59:52;100678.77;;;7.14;65.55
61761;BME280;47664;51.660;-0.100;2022-11-25T09:02:25;100687.61;;;6.71;66.07
61761;BME280;47664;51.660;-0.100;2022-11-25T09:04:57;100699.67;;;6.72;66.11
61761;BME280;47664;51.660;-0.100;2022-11-25T09:07:29;100709.90;;;7.00;65.63
61761;BME280;47664;51.660;-0.100;2022-11-25T09:10:01;100715.66;;;6.91;65.16
61761;BME280;47664;51.660;-0.100;2022-11-25T09:12:33;100721.21;;;7.11;65.58
61761;BME280;47664;51.660;-0.100;2022-11-25T09:15:05;100730.43;;;7.07;65.58
61761;BME280;47664;51.660;-0.100;2022-11-25T09:17:37;100735.81;;;6.85;65.88
61761;BME280;47664;51.660;-0.100;2022-11-25T09:20:11;100737.73;;;7.21;65.14
61761;BME280;47664;51.660;-0.100;2022-11-25T09:22:43;100746.76;;;6.92;65.68
61761;BME280;47664;51.660;-0.100;2022-11-25T09:25:15;100754.24;;;6.92;65.92
61761;BME280;47664;51.660;-0.100;2022-11-25T09:27:47;100758.21;;;6.92;66.05
61761;BME280;47664;51.660;-0.100;2022-11-25T09:30:20;100764.16;;;7.03;65.61
61761;BME280;47664;51.660;-0.100;2022-11-25T09:32:54;100768.75;;;7.19;65.93
61761;BME280;47664;51.660;-0.100;2022-11-25T09:35:27;100770.83;;;7.06;65.75
61761;BME280;47664;51.660;-0.100;2022-11-25T09:37:59;100772.13;;;7.53;65.30
61761;BME280;47664;51.660;-0.100;2022-11-25T09:40:32;100777.94;;;7.42;64.98
61761;BME280;47664;51.660;-0.100;2022-11-25T09:43:08;100778.45;;;7.58;64.92
61761;BME280;47664;51.660;-0.100;2022-11-25T09:45:49;100784.77;;;7.93;64.08
61761;BME280;47664;51.660;-0.100;2022-11-25T09:48:31;100785.80;;;7.46;64.78
61761;BME280;47664;51.660;-0.100;2022-11-25T09:51:08;100790.53;;;7.31;65.37
61761;BME280;47664;51.660;-0.100;2022-11-25T09:53:42;100797.12;;;7.54;64.92
61761;BME280;47664;51.660;-0.100;2022-11-25T09:56:17;100802.95;;;7.66;64.89
61761;BME280;47664;51.660;-0.100;2022-11-25T09:58:56;100807.67;;;7.53;65.10
61761;BME280;47664;51.660;-0.100;2022-11-25T10:01:34;100816.50;;;7.50;65.14
61761;BME280;47664;51.660;-0.100;2022-11-25T10:04:10;100818.48;;;7.83;64.39
61761;BME280;47664;51.660;-0.100;2022-11-25T10:06:48;100825.73;;;7.98;63.97
61761;BME280;47664;51.660;-0.100;2022-11-25T10:09:21;100826.51;;;8.07;63.45
61761;BME280;47664;51.660;-0.100;2022-11-25T10:11:57;100832.88;;;8.45;62.67
61761;BME280;47664;51.660;-0.100;2022-11-25T10:14:31;100832.98;;;7.79;63.18
61761;BME280;47664;51.660;-0.100;2022-11-25T10:17:08;100835.49;;;7.83;63.71
61761;BME280;47664;51.660;-0.100;2022-11-25T10:19:46;100838.77;;;8.19;63.24
61761;BME280;47664;51.660;-0.100;2022-11-25T10:22:22;100843.28;;;8.08;63.18
61761;BME280;47664;51.660;-0.100;2022-11-25T10:24:56;100848.68;;;8.26;62.79
61761;BME280;47664;51.660;-0.100;2022-11-25T10:27:30;100852.54;;;8.37;62.35
61761;BME280;47664;51.660;-0.100;2022-11-25T10:30:12;100856.60;;;8.42;61.65
61761;BME280;47664;51.660;-0.100;2022-11-25T10:32:47;100858.72;;;8.26;62.11
61761;BME280;47664;51.660;-0.100;2022-11-25T10:35:23;100854.82;;;8.43;62.00
61761;BME280;47664;51.660;-0.100;2022-11-25T10:37:59;100855.51;;;8.63;60.79
61761;BME280;47664;51.660;-0.100;2022-11-25T10:40:32;100860.45;;;8.66;61.01
61761;BME280;47664;51.660;-0.100;2022-11-25T10:43:09;100858.23;;;8.79;60.76
61761;BME280;47664;51.660;-0.100;2022-11-25T10:45:47;100859.62;;;8.62;61.35
61761;BME280;47664;51.660;-0.100;2022-11-25T10:48:22;100868.48;;;8.56;61.27
61761;BME280;47664;51.660;-0.100;2022-11-25T10:51:03;100873.36;;;8.61;60.98
61761;BME280;47664;51.660;-0.100;2022-11-25T10:53:42;100877.04;;;8.53;61.73
61761;BME280;47664;51.660;-0.100;2022-11-25T10:56:42;100879.42;;;8.59;62.12
61761;BME280;47664;51.660;-0.100;2022-11-25T10:59:22;100882.24;;;8.40;61.86
61761;BME280;47664;51.660;-0.100;2022-11-25T11:02:11;100885.93;;;8.61;61.96
61761;BME280;47664;51.660;-0.100;2022-11-25T11:04:51;100889.10;;;8.29;61.97
61761;BME280;47664;51.660;-0.100;2022-11-25T11:07:25;100894.65;;;8.32;61.81
61761;BME280;47664;51.660;-0.100;2022-11-25T11:10:07;100893.75;;;8.33;61.06
61761;BME280;47664;51.660;-0.100;2022-11-25T11:12:50;100895.72;;;9.35;59.93
61761;BME280;47664;51.660;-0.100;2022-11-25T11:15:21;100905.04;;;8.74;60.17
61761;BME280;47664;51.660;-0.100;2022-11-25T11:17:54;100905.77;;;9.30;59.92
61761;BME280;47664;51.660;-0.100;2022-11-25T11:20:28;100906.20;;;9.15;59.20
61761;BME280;47664;51.660;-0.100;2022-11-25T11:23:03;100910.13;;;9.33;58.84
61761;BME280;47664;51.660;-0.100;2022-11-25T11:25:37;100915.25;;;9.21;59.43
61761;BME280;47664;51.660;-0.100;2022-11-25T11:28:24;100917.96;;;9.01;59.08
61761;BME280;47664;51.660;-0.100;2022-11-25T11:30:59;100920.36;;;8.88;58.79
61761;BME280;47664;51.660;-0.100;2022-11-25T11:33:32;100925.96;;;9.03;59.32
61761;BME280;47664;51.660;-0.100;2022-11-25T11:36:09;100928.00;;;9.23;59.28
61761;BME280;47664;51.660;-0.100;2022-11-25T11:38:50;100931.35;;;9.46;59.78
61761;BME280;47664;51.660;-0.100;2022-11-25T11:41:27;100931.32;;;9.49;58.91
61761;BME280;47664;51.660;-0.100;2022-11-25T11:44:06;100937.02;;;8.99;58.51
61761;BME280;47664;51.660;-0.100;2022-11-25T11:46:44;100948.59;;;8.99;59.41
61761;BME280;47664;51.660;-0.100;2022-11-25T11:49:27;100957.26;;;8.96;60.06
61761;BME280;47664;51.660;-0.100;2022-11-25T11:52:03;100964.14;;;9.23;60.24
61761;BME280;47664;51.660;-0.100;2022-11-25T11:54:41;100958.39;;;9.25;58.84
61761;BME280;47664;51.660;-0.100;2022-11-25T11:57:18;100960.89;;;9.28;59.28
61761;BME280;47664;51.660;-0.100;2022-11-25T11:59:54;100964.67;;;9.25;58.99
61761;BME280;47664;51.660;-0.100;2022-11-25T12:02:34;100960.45;;;9.38;58.15
61761;BME280;47664;51.660;-0.100;2022-11-25T12:05:12;100964.08;;;9.19;59.06
61761;BME280;47664;51.660;-0.100;2022-11-25T12:07:46;100970.35;;;9.61;59.15
61761;BME280;47664;51.660;-0.100;2022-11-25T12:10:21;100971.86;;;9.17;59.08
61761;BME280;47664;51.660;-0.100;2022-11-25T12:12:59;100968.42;;;9.22;58.76
61761;BME280;47664;51.660;-0.100;2022-11-25T12:15:38;100977.20;;;8.85;58.82
61761;BME280;47664;51.660;-0.100;2022-11-25T12:18:16;100979.24;;;9.16;58.85
61761;BME280;47664;51.660;-0.100;2022-11-25T12:20:53;100982.54;;;8.83;58.80
61761;BME280;47664;51.660;-0.100;2022-11-25T12:23:28;100987.44;;;9.33;58.29
61761;BME280;47664;51.660;-0.100;2022-11-25T12:26:04;100997.24;;;8.84;58.45
61761;BME280;47664;51.660;-0.100;2022-11-25T12:28:39;101000.30;;;9.51;57.57
61761;BME280;47664;51.660;-0.100;2022-11-25T12:31:14;101002.21;;;9.11;58.38
61761;BME280;47664;51.660;-0.100;2022-11-25T12:33:51;101005.29;;;9.19;57.78
61761;BME280;47664;51.660;-0.100;2022-11-25T12:36:25;101002.72;;;9.57;57.19
61761;BME280;47664;51.660;-0.100;2022-11-25T12:39:02;101008.30;;;9.41;56.97
61761;BME280;47664;51.660;-0.100;2022-11-25T12:41:37;101013.28;;;9.49;56.80
61761;BME280;47664;51.660;-0.100;2022-11-25T12:44:11;101014.92;;;9.24;57.31
61761;BME280;47664;51.660;-0.100;2022-11-25T12:46:48;101019.36;;;9.38;57.69
61761;BME280;47664;51.660;-0.100;2022-11-25T12:49:19;101028.41;;;9.28;57.44
61761;BME280;47664;51.660;-0.100;2022-11-25T12:52:15;101031.13;;;9.24;57.30
61761;BME280;47664;51.660;-0.100;2022-11-25T12:55:01;101041.59;;;9.84;56.80
61761;BME280;47664;51.660;-0.100;2022-11-25T12:58:58;101049.39;;;9.20;57.08
61761;BME280;47664;51.660;-0.100;2022-11-25T13:01:40;101050.43;;;9.37;57.43
61761;BME280;47664;51.660;-0.100;2022-11-25T13:04:28;101052.03;;;9.34;57.18
61761;BME280;47664;51.660;-0.100;2022-11-25T13:07:16;101052.57;;;9.56;56.81
61761;BME280;47664;51.660;-0.100;2022-11-25T13:11:10;101055.97;;;9.71;55.75
61761;BME280;47664;51.660;-0.100;2022-11-25T13:13:50;101059.27;;;9.88;56.31
61761;BME280;47664;51.660;-0.100;2022-11-25T13:16:25;101068.68;;;9.69;56.68
61761;BME280;47664;51.660;-0.100;2022-11-25T13:18:59;101068.45;;;10.10;56.64
61761;BME280;47664;51.660;-0.100;2022-11-25T13:21:31;101074.34;;;9.45;56.88
61761;BME280;47664;51.660;-0.100;2022-11-25T13:24:08;101073.32;;;9.24;55.89
61761;BME280;47664;51.660;-0.100;2022-11-25T13:26:58;101076.94;;;9.69;56.89
61761;BME280;47664;51.660;-0.100;2022-11-25T13:29:57;101078.84;;;9.68;56.50